createdAt,value
2022-12-08T00:01:47.975Z,34.57
2022-12-08T00:04:16.492Z,34.70
2022-12-08T00:07:03.039Z,36.97
2022-12-08T00:09:38.655Z,28.73
2022-12-08T00:12:09.804Z,33.93
2022-12-08T00:14:40.491Z,37.53
2022-12-08T00:17:11.935Z,33.93
2022-12-08T00:19:40.927Z,33.20
2022-12-08T00:22:10.814Z,27.77
2022-12-08T00:24:40.811Z,32.93
2022-12-08T00:27:11.036Z,26.53
2022-12-08T00:29:39.705Z,32.83
2022-12-08T00:32:09.439Z,32.83
2022-12-08T00:34:37.631Z,26.97
2022-12-08T00:37:06.332Z,27.43
2022-12-08T00:39:34.769Z,30.63
2022-12-08T00:42:14.844Z,28.53
2022-12-08T00:44:43.776Z,30.90
2022-12-08T00:47:14.777Z,27.70
2022-12-08T00:49:43.412Z,26.57
2022-12-08T00:52:12.766Z,30.60
2022-12-08T00:54:40.906Z,33.23
2022-12-08T00:57:08.998Z,34.50
2022-12-08T00:59:37.151Z,30.07
2022-12-08T01:02:05.307Z,29.63
2022-12-08T01:04:34.938Z,26.97
2022-12-08T01:07:03.087Z,30.60
2022-12-08T01:09:31.146Z,30.03
2022-12-08T01:11:59.317Z,32.33
2022-12-08T01:14:27.844Z,33.93
2022-12-08T01:16:56.420Z,30.47
2022-12-08T01:19:24.748Z,38.57
2022-12-08T01:21:54.486Z,34.00
2022-12-08T01:24:22.813Z,31.07
2022-12-08T01:26:52.255Z,34.13
2022-12-08T01:29:20.761Z,33.57
2022-12-08T01:31:49.339Z,31.00
2022-12-08T01:34:17.496Z,36.13
2022-12-08T01:36:45.760Z,33.77
2022-12-08T01:39:19.133Z,30.90
2022-12-08T01:41:48.717Z,32.57
2022-12-08T01:44:53.475Z,34.83
2022-12-08T01:47:22.991Z,28.90
2022-12-08T01:49:51.275Z,38.10
2022-12-08T01:52:23.287Z,42.23
2022-12-08T01:54:57.377Z,32.97
2022-12-08T01:57:29.557Z,34.13
2022-12-08T02:00:03.195Z,29.57
2022-12-08T02:02:38.326Z,35.97
2022-12-08T02:05:08.185Z,37.00
2022-12-08T02:07:37.357Z,33.33
2022-12-08T02:10:08.201Z,39.33
2022-12-08T02:12:36.378Z,38.93
2022-12-08T02:15:05.775Z,33.83
2022-12-08T02:17:47.841Z,40.90
2022-12-08T02:20:35.923Z,38.27
2022-12-08T02:23:14.902Z,34.70
2022-12-08T02:26:02.012Z,30.60
2022-12-08T02:29:07.116Z,32.80
2022-12-08T02:31:49.111Z,39.60
2022-12-08T02:34:27.920Z,41.03
2022-12-08T02:37:05.040Z,31.30
2022-12-08T02:39:40.593Z,36.70
2022-12-08T02:42:13.744Z,34.33
2022-12-08T02:44:47.320Z,32.33
2022-12-08T02:47:19.757Z,34.10
2022-12-08T02:49:49.469Z,33.13
2022-12-08T02:52:44.088Z,41.13
2022-12-08T02:55:25.494Z,40.47
2022-12-08T02:58:35.488Z,34.93
2022-12-08T03:01:16.152Z,40.50
2022-12-08T03:03:52.608Z,33.87
2022-12-08T03:06:30.694Z,36.33
2022-12-08T03:09:05.015Z,40.83
2022-12-08T03:11:38.464Z,41.27
2022-12-08T03:14:08.918Z,42.67
2022-12-08T03:16:41.220Z,36.83
2022-12-08T03:19:14.993Z,40.07
2022-12-08T03:21:48.211Z,38.47
2022-12-08T03:24:18.676Z,39.83
2022-12-08T03:26:49.912Z,37.80
2022-12-08T03:29:18.250Z,43.40
2022-12-08T03:31:53.226Z,40.80
2022-12-08T03:34:22.931Z,45.33
2022-12-08T03:36:52.500Z,47.43
2022-12-08T03:39:20.643Z,39.70
2022-12-08T03:41:48.991Z,40.50
2022-12-08T03:44:17.191Z,46.17
2022-12-08T03:46:45.918Z,49.33
2022-12-08T03:49:14.082Z,45.87
2022-12-08T03:51:42.247Z,39.20
2022-12-08T03:54:11.911Z,40.10
2022-12-08T03:56:40.389Z,38.00
2022-12-08T03:59:09.056Z,41.30
2022-12-08T04:01:37.536Z,36.63
2022-12-08T04:04:05.945Z,43.07
2022-12-08T04:06:34.305Z,41.97
2022-12-08T04:09:02.995Z,47.50
2022-12-08T04:11:32.497Z,42.63
2022-12-08T04:14:01.031Z,40.17
2022-12-08T04:16:29.303Z,39.37
2022-12-08T04:18:57.683Z,35.70
2022-12-08T04:21:25.927Z,44.73
2022-12-08T04:24:00.752Z,44.30
2022-12-08T04:26:29.967Z,40.63
2022-12-08T04:28:59.520Z,39.43
2022-12-08T04:31:27.811Z,35.30
2022-12-08T04:33:56.201Z,43.10
2022-12-08T04:36:24.275Z,39.73
2022-12-08T04:38:52.417Z,36.43
2022-12-08T04:41:21.613Z,37.97
2022-12-08T04:43:49.744Z,34.97
2022-12-08T04:46:19.325Z,43.60
2022-12-08T04:48:47.591Z,33.30
2022-12-08T04:51:18.055Z,31.47
2022-12-08T04:53:47.511Z,38.87
2022-12-08T04:56:17.267Z,32.17
2022-12-08T04:58:45.851Z,34.50
2022-12-08T05:01:14.600Z,33.30
2022-12-08T05:03:44.185Z,42.07
2022-12-08T05:06:14.430Z,36.10
2022-12-08T05:08:43.043Z,34.80
2022-12-08T05:11:13.029Z,34.47
2022-12-08T05:13:41.576Z,33.20
2022-12-08T05:16:12.233Z,33.67
2022-12-08T05:18:41.461Z,36.70
2022-12-08T05:21:11.169Z,56.93
2022-12-08T05:23:39.335Z,60.63
2022-12-08T05:26:07.921Z,64.20
2022-12-08T05:28:44.090Z,54.93
2022-12-08T05:31:12.954Z,55.93
2022-12-08T05:33:41.912Z,48.53
2022-12-08T05:36:14.614Z,58.90
2022-12-08T05:38:43.268Z,60.13
2022-12-08T05:41:14.554Z,56.60
2022-12-08T05:43:42.661Z,58.87
2022-12-08T05:46:11.162Z,49.70
2022-12-08T05:48:39.882Z,50.80
2022-12-08T05:51:17.094Z,44.10
2022-12-08T05:53:46.686Z,51.27
2022-12-08T05:56:15.126Z,44.97
2022-12-08T05:58:43.431Z,46.00
2022-12-08T06:01:20.555Z,43.03
2022-12-08T06:03:48.715Z,48.87
2022-12-08T06:06:17.155Z,43.73
2022-12-08T06:08:46.762Z,43.67
2022-12-08T06:11:19.939Z,47.60
2022-12-08T06:13:48.301Z,43.90
2022-12-08T06:16:16.605Z,49.13
2022-12-08T06:18:44.746Z,48.50
2022-12-08T06:21:15.980Z,43.67
2022-12-08T06:23:45.032Z,41.77
2022-12-08T06:26:16.399Z,45.13
2022-12-08T06:28:44.929Z,47.10
2022-12-08T06:31:16.278Z,37.77
2022-12-08T06:33:44.791Z,46.50
2022-12-08T06:36:14.333Z,40.70
2022-12-08T06:38:43.973Z,45.47
2022-12-08T06:41:14.571Z,44.97
2022-12-08T06:43:43.202Z,45.97
2022-12-08T06:46:13.549Z,48.73
2022-12-08T06:48:41.844Z,46.67
2022-12-08T06:51:11.324Z,47.17
2022-12-08T06:53:39.970Z,38.27
2022-12-08T06:56:09.388Z,41.93
2022-12-08T06:58:39.077Z,37.23
2022-12-08T07:01:11.233Z,38.17
2022-12-08T07:03:40.175Z,41.83
2022-12-08T07:06:08.675Z,34.33
2022-12-08T07:08:36.870Z,37.77
2022-12-08T07:11:09.217Z,28.80
2022-12-08T07:13:38.784Z,36.97
2022-12-08T07:16:08.929Z,32.30
2022-12-08T07:18:38.069Z,30.77
2022-12-08T07:21:07.739Z,28.53
2022-12-08T07:23:36.655Z,33.57
2022-12-08T07:26:07.880Z,35.10
2022-12-08T07:28:40.035Z,41.13
2022-12-08T07:31:09.662Z,33.17
2022-12-08T07:33:38.015Z,36.63
2022-12-08T07:36:07.511Z,35.43
2022-12-08T07:38:35.639Z,31.57
2022-12-08T07:41:03.912Z,27.17
2022-12-08T07:43:32.304Z,29.70
2022-12-08T07:46:02.021Z,25.60
2022-12-08T07:48:30.541Z,33.83
2022-12-08T07:51:02.566Z,29.03
2022-12-08T07:53:31.330Z,30.27
2022-12-08T07:55:59.695Z,38.77
2022-12-08T07:58:28.361Z,36.57
2022-12-08T08:00:57.925Z,38.10
2022-12-08T08:03:27.594Z,30.80
2022-12-08T08:05:55.800Z,35.30
2022-12-08T08:08:23.919Z,29.70
2022-12-08T08:10:52.103Z,33.50
2022-12-08T08:13:20.291Z,41.80
2022-12-08T08:15:48.657Z,32.87
2022-12-08T08:18:17.129Z,25.67
2022-12-08T08:20:46.684Z,28.47
2022-12-08T08:23:14.801Z,26.63
2022-12-08T08:25:42.992Z,24.83
2022-12-08T08:28:11.250Z,28.77
2022-12-08T08:30:39.450Z,34.13
2022-12-08T08:33:07.768Z,31.47
2022-12-08T08:35:36.452Z,36.10
2022-12-08T08:38:06.088Z,36.73
2022-12-08T08:40:34.230Z,39.00
2022-12-08T08:43:02.464Z,44.63
2022-12-08T08:45:30.620Z,41.07
2022-12-08T08:47:58.749Z,42.30
2022-12-08T08:50:29.507Z,33.23
2022-12-08T08:53:01.082Z,33.60
2022-12-08T08:55:30.702Z,40.33
2022-12-08T08:57:58.814Z,35.70
2022-12-08T09:00:27.938Z,36.07
2022-12-08T09:02:56.072Z,41.00
2022-12-08T09:05:24.194Z,39.03
2022-12-08T09:07:52.417Z,49.50
2022-12-08T09:10:20.689Z,52.07
2022-12-08T09:12:50.211Z,41.50
2022-12-08T09:15:20.778Z,40.00
2022-12-08T09:17:49.051Z,36.17
2022-12-08T09:20:17.199Z,40.00
2022-12-08T09:22:45.350Z,42.93
2022-12-08T09:25:13.570Z,48.07
2022-12-08T09:27:41.684Z,43.43
2022-12-08T09:30:12.458Z,49.43
2022-12-08T09:32:40.561Z,61.93
2022-12-08T09:35:09.562Z,58.90
2022-12-08T09:37:37.700Z,66.47
2022-12-08T09:40:07.689Z,64.93
2022-12-08T09:42:44.288Z,57.43
2022-12-08T09:45:15.625Z,45.10
2022-12-08T09:47:46.421Z,47.97
2022-12-08T09:50:20.921Z,53.23
2022-12-08T09:53:00.523Z,52.50
2022-12-08T09:55:41.766Z,55.50
2022-12-08T09:58:20.955Z,58.90
2022-12-08T10:00:50.412Z,57.10
2022-12-08T10:03:19.246Z,48.93
2022-12-08T10:05:56.021Z,61.83
2022-12-08T10:08:32.587Z,59.27
2022-12-08T10:11:04.784Z,56.20
2022-12-08T10:13:40.617Z,47.20
2022-12-08T10:16:26.574Z,43.43
2022-12-08T10:19:02.737Z,38.27
2022-12-08T10:21:33.795Z,37.33
2022-12-08T10:24:10.949Z,39.30
2022-12-08T10:26:39.070Z,43.20
2022-12-08T10:29:07.375Z,45.90
2022-12-08T10:31:36.897Z,50.33
2022-12-08T10:34:17.463Z,60.07
2022-12-08T10:36:56.343Z,46.90
2022-12-08T10:39:38.663Z,39.60
2022-12-08T10:42:19.049Z,40.50
2022-12-08T10:45:15.394Z,38.17
2022-12-08T10:47:53.933Z,25.03
2022-12-08T10:50:25.557Z,31.10
2022-12-08T10:52:57.727Z,33.33
2022-12-08T10:55:26.464Z,33.17
2022-12-08T10:57:55.018Z,34.17
2022-12-08T11:00:27.224Z,37.73
2022-12-08T11:03:00.560Z,40.00
2022-12-08T11:05:32.258Z,32.60
2022-12-08T11:08:01.069Z,36.93
2022-12-08T11:10:35.968Z,32.47
2022-12-08T11:13:08.291Z,29.97
2022-12-08T11:15:41.662Z,33.27
2022-12-08T11:18:28.207Z,32.17
2022-12-08T11:21:02.836Z,41.93
2022-12-08T11:23:31.629Z,38.83
2022-12-08T11:26:06.648Z,38.00
2022-12-08T11:28:34.927Z,31.67
2022-12-08T11:31:12.973Z,32.17
2022-12-08T11:33:44.244Z,34.97
2022-12-08T11:36:16.293Z,47.23
2022-12-08T11:38:48.563Z,63.33
2022-12-08T11:41:20.412Z,67.17
2022-12-08T11:43:55.273Z,59.83
2022-12-08T11:46:26.830Z,62.17
2022-12-08T11:49:06.247Z,59.10
2022-12-08T11:51:39.434Z,53.17
2022-12-08T11:54:18.130Z,44.20
2022-12-08T11:56:49.385Z,48.27
2022-12-08T11:59:24.351Z,38.20
2022-12-08T12:01:52.723Z,42.93
2022-12-08T12:04:30.918Z,42.83
2022-12-08T12:07:28.575Z,34.93
2022-12-08T12:10:16.845Z,38.93
2022-12-08T12:12:58.719Z,40.00
2022-12-08T12:16:07.972Z,41.33
2022-12-08T12:18:41.447Z,44.93
2022-12-08T12:21:17.058Z,40.40
2022-12-08T12:23:49.144Z,39.40
2022-12-08T12:26:23.680Z,49.80
2022-12-08T12:28:54.545Z,41.37
2022-12-08T12:31:26.717Z,38.00
2022-12-08T12:33:58.642Z,35.13
2022-12-08T12:36:28.331Z,40.73
2022-12-08T12:39:04.213Z,46.20
2022-12-08T12:41:38.773Z,47.43
2022-12-08T12:44:25.029Z,40.07
2022-12-08T12:47:00.984Z,40.73
2022-12-08T12:49:52.206Z,37.30
2022-12-08T12:52:47.377Z,40.67
2022-12-08T12:55:27.391Z,40.00
2022-12-08T12:57:57.015Z,38.67
2022-12-08T13:00:26.506Z,37.63
2022-12-08T13:02:56.668Z,37.03
2022-12-08T13:05:28.377Z,30.83
2022-12-08T13:08:00.849Z,34.40
2022-12-08T13:10:32.593Z,34.33
2022-12-08T13:13:07.876Z,40.03
2022-12-08T13:15:39.358Z,36.60
2022-12-08T13:18:09.041Z,40.10
2022-12-08T13:20:44.009Z,92.53
2022-12-08T13:23:31.070Z,45.03
2022-12-08T13:26:27.012Z,43.53
2022-12-08T13:29:16.839Z,35.07
2022-12-08T13:31:50.939Z,40.40
2022-12-08T13:34:23.686Z,39.90
2022-12-08T13:37:01.636Z,31.20
2022-12-08T13:39:38.094Z,35.90
2022-12-08T13:42:17.314Z,33.53
2022-12-08T13:45:22.329Z,37.80
2022-12-08T13:48:05.914Z,76.00
2022-12-08T13:54:46.328Z,34.87
2022-12-08T13:57:00.772Z,36.10
2022-12-08T13:59:11.893Z,58.53
2022-12-08T14:01:45.915Z,42.73
2022-12-08T14:07:06.986Z,64.63
2022-12-08T14:09:37.594Z,58.70
2022-12-08T14:12:10.254Z,58.67
2022-12-08T14:17:30.527Z,45.00
2022-12-08T14:20:01.135Z,46.10
2022-12-08T14:22:34.654Z,49.37
2022-12-08T14:25:03.419Z,42.50
2022-12-08T14:27:37.042Z,42.07
2022-12-08T14:30:08.780Z,47.33
2022-12-08T14:32:44.432Z,40.57
2022-12-08T14:35:21.837Z,47.43
2022-12-08T14:37:52.811Z,47.67
2022-12-08T14:40:24.534Z,50.87
2022-12-08T14:43:06.529Z,39.93
2022-12-08T14:45:35.245Z,62.27
2022-12-08T14:48:22.071Z,52.37
2022-12-08T14:51:01.855Z,51.93
2022-12-08T14:53:37.795Z,50.30
2022-12-08T14:56:09.919Z,49.93
2022-12-08T14:58:39.853Z,51.13
2022-12-08T15:01:10.568Z,47.63
2022-12-08T15:03:38.939Z,43.87
2022-12-08T15:06:09.872Z,48.93
2022-12-08T15:08:53.609Z,39.97
2022-12-08T15:11:42.474Z,43.80
2022-12-08T15:14:33.102Z,49.60
2022-12-08T15:17:01.459Z,41.10
2022-12-08T15:19:31.219Z,47.73
2022-12-08T15:22:03.887Z,54.67
2022-12-08T15:24:32.270Z,58.13
2022-12-08T15:27:00.409Z,47.07
2022-12-08T15:29:31.558Z,49.60
2022-12-08T15:32:01.687Z,47.40
2022-12-08T15:34:31.646Z,45.10
2022-12-08T15:36:59.830Z,42.07
2022-12-08T15:39:34.548Z,49.77
2022-12-08T15:42:04.511Z,47.10
2022-12-08T15:44:34.153Z,61.93
2022-12-08T15:47:02.740Z,47.93
2022-12-08T15:49:31.090Z,53.90
2022-12-08T15:52:10.635Z,67.47
2022-12-08T15:54:40.393Z,67.63
2022-12-08T15:57:25.015Z,68.43
2022-12-08T16:00:12.173Z,56.73
2022-12-08T16:06:10.139Z,51.07
2022-12-08T16:08:49.555Z,56.00
2022-12-08T16:15:39.156Z,53.70
2022-12-08T16:17:23.839Z,57.57
2022-12-08T16:19:52.023Z,68.10
2022-12-08T16:25:19.228Z,73.33
2022-12-08T16:28:29.351Z,92.77
2022-12-08T16:30:38.918Z,80.43
2022-12-08T16:33:10.711Z,97.63
2022-12-08T16:35:38.999Z,100.67
2022-12-08T16:38:07.696Z,103.93
2022-12-08T16:40:56.974Z,83.67
2022-12-08T16:43:24.055Z,81.27
2022-12-08T16:45:52.930Z,69.03
2022-12-08T16:48:22.939Z,84.10
2022-12-08T16:50:51.230Z,75.70
2022-12-08T16:53:19.478Z,67.00
2022-12-08T16:55:49.054Z,64.50
2022-12-08T16:58:19.069Z,82.03
2022-12-08T17:00:47.300Z,71.53
2022-12-08T17:03:17.871Z,76.63
2022-12-08T17:05:47.434Z,92.80
2022-12-08T17:08:15.683Z,111.70
2022-12-08T17:10:44.264Z,90.30
2022-12-08T17:13:13.170Z,98.93
2022-12-08T17:15:41.683Z,135.30
2022-12-08T17:18:09.949Z,84.23
2022-12-08T17:20:40.422Z,110.57
2022-12-08T17:23:10.048Z,89.53
2022-12-08T17:25:38.470Z,68.47
2022-12-08T17:28:06.691Z,63.07
2022-12-08T17:30:35.036Z,70.27
2022-12-08T17:33:03.304Z,83.00
2022-12-08T17:35:31.450Z,133.13
2022-12-08T17:37:59.622Z,89.47
2022-12-08T17:40:29.430Z,62.40
2022-12-08T17:42:57.624Z,67.00
2022-12-08T17:45:25.801Z,55.63
2022-12-08T17:47:54.070Z,53.70
2022-12-08T17:50:22.245Z,64.47
2022-12-08T17:52:51.502Z,62.83
2022-12-08T17:55:19.610Z,57.87
2022-12-08T17:57:49.250Z,115.77
2022-12-08T18:00:17.859Z,387.00
2022-12-08T18:02:46.536Z,357.97
2022-12-08T18:05:15.037Z,271.30
2022-12-08T18:07:43.196Z,539.70
2022-12-08T18:10:11.795Z,315.57
2022-12-08T18:12:40.310Z,93.60
2022-12-08T18:15:12.923Z,69.53
2022-12-08T18:17:41.084Z,80.33
2022-12-08T18:20:11.034Z,72.40
2022-12-08T18:22:39.154Z,71.10
2022-12-08T18:25:08.060Z,58.00
2022-12-08T18:27:42.741Z,58.17
2022-12-08T18:30:18.838Z,107.97
2022-12-08T18:32:47.381Z,89.63
2022-12-08T18:35:16.876Z,74.27
2022-12-08T18:37:45.778Z,56.70
2022-12-08T18:40:15.001Z,61.17
2022-12-08T18:42:43.363Z,62.50
2022-12-08T18:45:16.744Z,58.43
2022-12-08T18:47:48.012Z,64.00
2022-12-08T18:50:17.200Z,67.33
2022-12-08T18:52:46.236Z,56.83
2022-12-08T18:55:14.932Z,66.67
2022-12-08T18:57:44.072Z,65.33
2022-12-08T19:00:17.357Z,58.53
2022-12-08T19:02:45.808Z,70.20
2022-12-08T19:05:15.383Z,61.10
2022-12-08T19:07:45.828Z,55.93
2022-12-08T19:10:14.743Z,47.53
2022-12-08T19:12:43.127Z,55.73
2022-12-08T19:15:13.796Z,72.53
2022-12-08T19:17:42.299Z,69.90
2022-12-08T19:20:11.613Z,80.97
2022-12-08T19:22:40.110Z,87.73
2022-12-08T19:25:09.045Z,95.80
2022-12-08T19:27:37.499Z,109.10
2022-12-08T19:30:07.422Z,91.73
2022-12-08T19:32:37.176Z,69.90
2022-12-08T19:35:07.638Z,81.33
2022-12-08T19:37:36.081Z,73.50
2022-12-08T19:40:22.425Z,66.57
2022-12-08T19:43:08.136Z,85.80
2022-12-08T19:45:37.977Z,51.13
2022-12-08T19:48:09.932Z,38.00
2022-12-08T19:50:38.319Z,54.27
2022-12-08T19:53:08.435Z,47.50
2022-12-08T19:55:37.155Z,45.93
2022-12-08T19:58:06.278Z,51.37
2022-12-08T20:00:35.244Z,42.20
2022-12-08T20:03:05.052Z,41.80
2022-12-08T20:05:36.958Z,45.80
2022-12-08T20:08:05.551Z,44.63
2022-12-08T20:10:36.957Z,49.07
2022-12-08T20:13:23.122Z,44.13
2022-12-08T20:15:51.994Z,46.57
2022-12-08T20:18:21.072Z,41.27
2022-12-08T20:20:50.744Z,40.30
2022-12-08T20:23:19.081Z,49.20
2022-12-08T20:25:47.997Z,54.43
2022-12-08T20:28:16.419Z,48.37
2022-12-08T20:30:47.097Z,43.60
2022-12-08T20:33:16.176Z,45.33
2022-12-08T20:35:44.952Z,50.30
2022-12-08T20:38:14.713Z,47.90
2022-12-08T20:40:44.307Z,62.67
2022-12-08T20:43:12.552Z,98.27
2022-12-08T20:45:40.827Z,78.27
2022-12-08T20:48:09.103Z,67.53
2022-12-08T20:50:37.295Z,75.83
2022-12-08T20:53:06.259Z,62.90
2022-12-08T20:55:36.807Z,55.13
2022-12-08T20:58:04.961Z,52.17
2022-12-08T21:00:33.319Z,50.57
2022-12-08T21:03:03.471Z,56.53
2022-12-08T21:05:31.969Z,52.63
2022-12-08T21:08:00.435Z,48.80
2022-12-08T21:10:28.882Z,62.60
2022-12-08T21:12:58.696Z,48.17
2022-12-08T21:15:26.841Z,55.40
2022-12-08T21:17:56.164Z,60.47
2022-12-08T21:20:24.314Z,63.90
2022-12-08T21:22:52.505Z,72.67
2022-12-08T21:25:20.714Z,87.00
2022-12-08T21:27:48.980Z,90.13
2022-12-08T21:30:18.829Z,77.90
2022-12-08T21:32:47.449Z,58.77
2022-12-08T21:35:16.073Z,64.30
2022-12-08T21:37:44.441Z,54.63
2022-12-08T21:40:13.895Z,51.40
2022-12-08T21:42:45.561Z,46.43
2022-12-08T21:45:15.607Z,44.10
2022-12-08T21:47:45.806Z,47.00
2022-12-08T21:50:15.351Z,47.90
2022-12-08T21:52:45.350Z,45.30
2022-12-08T21:55:15.747Z,48.27
2022-12-08T21:57:44.497Z,54.10
2022-12-08T22:00:16.177Z,55.77
2022-12-08T22:02:47.052Z,54.97
2022-12-08T22:05:15.757Z,77.63
2022-12-08T22:07:44.226Z,52.87
2022-12-08T22:10:13.118Z,50.33
2022-12-08T22:12:41.784Z,43.90
2022-12-08T22:15:12.465Z,47.60
2022-12-08T22:17:42.782Z,44.40
2022-12-08T22:20:16.055Z,37.27
2022-12-08T22:22:44.701Z,53.07
2022-12-08T22:25:13.206Z,48.43
2022-12-08T22:27:42.075Z,49.23
2022-12-08T22:30:12.163Z,46.40
2022-12-08T22:32:40.797Z,48.93
2022-12-08T22:35:10.073Z,49.63
2022-12-08T22:37:40.222Z,47.57
2022-12-08T22:40:09.830Z,50.33
2022-12-08T22:42:38.313Z,48.70
2022-12-08T22:45:07.561Z,54.73
2022-12-08T22:47:37.326Z,51.13
2022-12-08T22:50:06.939Z,49.00
2022-12-08T22:52:35.742Z,52.63
2022-12-08T22:55:06.162Z,50.13
2022-12-08T22:57:34.638Z,53.80
2022-12-08T23:00:03.600Z,62.53
2022-12-08T23:02:31.751Z,48.53
2022-12-08T23:04:59.987Z,49.17
2022-12-08T23:07:28.238Z,54.03
2022-12-08T23:09:56.925Z,52.23
2022-12-08T23:12:26.784Z,47.13
2022-12-08T23:14:55.056Z,52.43
2022-12-08T23:17:23.458Z,50.43
2022-12-08T23:19:51.887Z,53.07
2022-12-08T23:22:20.279Z,57.10
2022-12-08T23:24:48.575Z,52.10
2022-12-08T23:27:17.068Z,61.47
2022-12-08T23:29:46.689Z,53.77
2022-12-08T23:32:15.064Z,51.97
2022-12-08T23:34:43.549Z,48.27
2022-12-08T23:37:11.786Z,55.50
2022-12-08T23:39:40.060Z,50.23
2022-12-08T23:42:08.386Z,55.27
2022-12-08T23:44:36.637Z,52.70
2022-12-08T23:47:06.446Z,46.87
2022-12-08T23:49:35.037Z,51.90
2022-12-08T23:52:03.212Z,50.53
2022-12-08T23:54:31.354Z,52.43
2022-12-08T23:56:59.765Z,48.73
2022-12-08T23:59:28.103Z,50.63
